createdAt,value
2018-03-25T00:00:28.510Z,1.55
2018-03-25T00:02:56.306Z,1.54
2018-03-25T00:05:24.052Z,1.52
2018-03-25T00:07:51.887Z,1.49
2018-03-25T00:10:19.770Z,1.43
2018-03-25T00:12:47.580Z,1.37
2018-03-25T00:15:15.307Z,1.32
2018-03-25T00:17:43.126Z,1.34
2018-03-25T00:20:10.937Z,1.37
2018-03-25T00:22:38.716Z,1.32
2018-03-25T00:25:06.440Z,1.28
2018-03-25T00:27:34.220Z,1.30
2018-03-25T00:30:02.055Z,1.28
2018-03-25T00:32:29.788Z,1.33
2018-03-25T00:34:57.630Z,1.39
2018-03-25T00:37:25.367Z,1.39
2018-03-25T00:39:53.489Z,1.34
2018-03-25T00:42:21.247Z,1.29
2018-03-25T00:44:49.070Z,1.30
2018-03-25T00:47:16.809Z,1.36
2018-03-25T00:49:44.637Z,1.42
2018-03-25T00:52:12.374Z,1.49
2018-03-25T00:54:40.241Z,1.53
2018-03-25T00:57:07.957Z,1.55
2018-03-25T00:59:35.914Z,1.58
2018-03-25T01:02:03.633Z,1.63
2018-03-25T01:04:32.080Z,1.65
2018-03-25T01:06:59.712Z,1.68
2018-03-25T01:09:27.566Z,1.70
2018-03-25T01:11:55.265Z,1.68
2018-03-25T01:14:23.097Z,1.61
2018-03-25T01:16:50.833Z,1.60
2018-03-25T01:19:18.654Z,1.59
2018-03-25T01:21:46.565Z,1.52
2018-03-25T01:24:14.337Z,1.40
2018-03-25T01:26:42.073Z,1.33
2018-03-25T01:29:09.902Z,1.29
2018-03-25T01:31:37.650Z,1.23
2018-03-25T01:34:05.473Z,1.16
2018-03-25T01:36:33.222Z,1.14
2018-03-25T01:39:01.044Z,1.20
2018-03-25T01:41:28.779Z,1.22
2018-03-25T01:43:56.627Z,1.23
2018-03-25T01:46:24.352Z,1.23
2018-03-25T01:48:52.181Z,1.25
2018-03-25T01:51:19.927Z,1.27
2018-03-25T01:53:47.700Z,1.25
2018-03-25T01:56:15.488Z,1.26
2018-03-25T01:58:43.331Z,1.26
2018-03-25T02:01:11.067Z,1.22
2018-03-25T02:03:38.891Z,1.22
2018-03-25T02:06:06.637Z,1.19
2018-03-25T02:08:34.423Z,1.16
2018-03-25T02:11:02.256Z,1.12
2018-03-25T02:13:31.110Z,1.09
2018-03-25T02:15:58.946Z,1.00
2018-03-25T02:18:26.692Z,0.86
2018-03-25T02:20:54.547Z,0.77
2018-03-25T02:23:22.256Z,0.82
2018-03-25T02:25:50.080Z,0.81
2018-03-25T02:28:17.819Z,0.75
2018-03-25T02:30:45.643Z,0.72
2018-03-25T02:33:13.401Z,0.71
2018-03-25T02:35:41.134Z,0.72
2018-03-25T02:38:08.858Z,0.72
2018-03-25T02:40:36.696Z,0.68
2018-03-25T02:43:04.434Z,0.65
2018-03-25T02:45:32.266Z,0.64
2018-03-25T02:48:00.017Z,0.62
2018-03-25T02:50:27.839Z,0.57
2018-03-25T02:52:55.576Z,0.54
2018-03-25T02:55:23.407Z,0.49
2018-03-25T02:57:51.081Z,0.47
2018-03-25T03:00:18.815Z,0.48
2018-03-25T03:02:46.503Z,0.48
2018-03-25T03:05:14.234Z,0.45
2018-03-25T03:07:41.916Z,0.44
2018-03-25T03:10:09.635Z,0.43
2018-03-25T03:12:37.322Z,0.44
2018-03-25T03:15:05.058Z,0.49
2018-03-25T03:17:32.756Z,0.50
2018-03-25T03:20:00.536Z,0.49
2018-03-25T03:22:28.246Z,0.45
2018-03-25T03:24:55.969Z,0.48
2018-03-25T03:27:23.657Z,0.50
2018-03-25T03:29:51.470Z,0.50
2018-03-25T03:32:19.408Z,0.51
2018-03-25T03:34:47.253Z,0.61
2018-03-25T03:37:14.981Z,0.67
2018-03-25T03:39:42.721Z,0.72
2018-03-25T03:42:10.446Z,0.66
2018-03-25T03:44:38.269Z,0.63
2018-03-25T03:47:06.014Z,0.65
2018-03-25T03:49:33.841Z,0.62
2018-03-25T03:52:01.594Z,0.63
2018-03-25T03:54:29.368Z,0.63
2018-03-25T03:56:57.198Z,0.62
2018-03-25T03:59:24.938Z,0.67
2018-03-25T04:01:52.796Z,0.68
2018-03-25T04:04:20.524Z,0.70
2018-03-25T04:06:48.332Z,0.72
2018-03-25T04:09:16.083Z,0.72
2018-03-25T04:11:43.909Z,0.72
2018-03-25T04:14:11.645Z,0.63
2018-03-25T04:16:39.379Z,0.64
2018-03-25T04:19:07.118Z,0.66
2018-03-25T04:21:35.002Z,0.72
2018-03-25T04:24:02.786Z,0.68
2018-03-25T04:26:30.619Z,0.70
2018-03-25T04:28:58.355Z,0.74
2018-03-25T04:31:26.184Z,0.68
2018-03-25T04:33:53.924Z,0.68
2018-03-25T04:36:21.752Z,0.68
2018-03-25T04:38:49.523Z,0.69
2018-03-25T04:41:17.326Z,0.67
2018-03-25T04:43:45.068Z,0.68
2018-03-25T04:46:12.898Z,0.67
2018-03-25T04:48:40.655Z,0.72
2018-03-25T04:51:08.469Z,0.64
2018-03-25T04:53:36.207Z,0.58
2018-03-25T04:56:04.116Z,0.60
2018-03-25T04:58:31.882Z,0.62
2018-03-25T05:00:59.596Z,0.60
2018-03-25T05:03:27.346Z,0.59
2018-03-25T05:05:55.169Z,0.54
2018-03-25T05:08:22.921Z,0.54
2018-03-25T05:10:50.755Z,0.48
2018-03-25T05:13:18.448Z,0.53
2018-03-25T05:15:46.196Z,0.49
2018-03-25T05:18:13.889Z,0.48
2018-03-25T05:20:41.669Z,0.54
2018-03-25T05:23:09.368Z,0.53
2018-03-25T05:25:37.087Z,0.51
2018-03-25T05:28:04.821Z,0.50
2018-03-25T05:30:32.542Z,0.49
2018-03-25T05:33:00.232Z,0.52
2018-03-25T05:35:27.941Z,0.54
2018-03-25T05:37:55.677Z,0.56
2018-03-25T05:40:23.375Z,0.60
2018-03-25T05:42:51.126Z,0.68
2018-03-25T05:45:18.861Z,0.85
2018-03-25T05:47:46.698Z,1.07
2018-03-25T05:50:14.449Z,1.33
2018-03-25T05:52:42.267Z,1.61
2018-03-25T05:55:10.009Z,1.90
2018-03-25T05:57:37.738Z,2.14
2018-03-25T06:00:05.505Z,2.28
2018-03-25T06:02:33.311Z,2.48
2018-03-25T06:05:01.059Z,2.89
2018-03-25T06:07:28.869Z,3.21
2018-03-25T06:09:56.559Z,3.50
2018-03-25T06:12:24.301Z,3.72
2018-03-25T06:14:51.981Z,3.90
2018-03-25T06:17:19.721Z,3.90
2018-03-25T06:19:47.456Z,3.87
2018-03-25T06:22:15.278Z,3.92
2018-03-25T06:24:43.008Z,3.74
2018-03-25T06:27:10.744Z,3.45
2018-03-25T06:29:38.492Z,3.23
2018-03-25T06:32:06.322Z,3.07
2018-03-25T06:34:34.053Z,3.01
2018-03-25T06:37:01.885Z,3.13
2018-03-25T06:39:29.645Z,3.21
2018-03-25T06:41:57.498Z,3.41
2018-03-25T06:44:25.352Z,3.76
2018-03-25T06:46:53.132Z,3.98
2018-03-25T06:49:20.839Z,4.26
2018-03-25T06:51:48.605Z,4.53
2018-03-25T06:54:16.430Z,4.58
2018-03-25T06:56:44.186Z,4.83
2018-03-25T06:59:11.912Z,4.99
2018-03-25T07:01:39.775Z,5.19
2018-03-25T07:04:07.474Z,5.40
2018-03-25T07:06:35.336Z,5.51
2018-03-25T07:09:03.163Z,5.55
2018-03-25T07:11:30.989Z,5.63
2018-03-25T07:13:58.755Z,5.67
2018-03-25T07:16:26.523Z,5.80
2018-03-25T07:18:54.336Z,5.99
2018-03-25T07:21:22.108Z,6.26
2018-03-25T07:23:49.893Z,6.53
2018-03-25T07:26:17.650Z,6.86
2018-03-25T07:28:45.470Z,6.98
2018-03-25T07:31:13.207Z,7.07
2018-03-25T07:33:40.949Z,7.10
2018-03-25T07:36:08.683Z,7.10
2018-03-25T07:38:36.511Z,7.01
2018-03-25T07:41:04.283Z,7.14
2018-03-25T07:43:32.117Z,7.12
2018-03-25T07:45:59.814Z,7.21
2018-03-25T07:48:27.653Z,7.16
2018-03-25T07:50:55.403Z,7.23
2018-03-25T07:53:23.271Z,7.13
2018-03-25T07:55:51.042Z,7.26
2018-03-25T07:58:18.880Z,7.55
2018-03-25T08:00:46.620Z,7.88
2018-03-25T08:03:14.443Z,8.07
2018-03-25T08:05:42.240Z,8.02
2018-03-25T08:08:10.033Z,7.85
2018-03-25T08:10:37.767Z,7.77
2018-03-25T08:13:05.605Z,7.78
2018-03-25T08:15:33.340Z,7.79
2018-03-25T08:18:01.174Z,7.91
2018-03-25T08:20:28.933Z,8.05
2018-03-25T08:22:56.774Z,8.29
2018-03-25T08:25:24.479Z,8.60
2018-03-25T08:27:52.358Z,8.96
2018-03-25T08:30:20.191Z,9.18
2018-03-25T08:32:47.990Z,9.33
2018-03-25T08:35:15.754Z,9.40
2018-03-25T08:37:43.575Z,9.48
2018-03-25T08:40:11.294Z,9.70
2018-03-25T08:42:39.147Z,9.75
2018-03-25T08:45:06.894Z,9.82
2018-03-25T08:47:34.707Z,9.95
2018-03-25T08:50:02.421Z,9.96
2018-03-25T08:52:30.203Z,10.08
2018-03-25T08:54:57.929Z,10.15
2018-03-25T08:57:25.689Z,10.29
2018-03-25T08:59:53.461Z,10.20
2018-03-25T09:02:21.182Z,10.07
2018-03-25T09:04:48.968Z,10.05
2018-03-25T09:07:16.721Z,10.19
2018-03-25T09:09:44.494Z,10.40
2018-03-25T09:12:12.245Z,10.58
2018-03-25T09:14:39.987Z,10.42
2018-03-25T09:17:07.710Z,10.45
2018-03-25T09:19:35.454Z,10.76
2018-03-25T09:22:03.254Z,10.82
2018-03-25T09:24:31.050Z,11.10
2018-03-25T09:26:58.790Z,11.13
2018-03-25T09:29:26.601Z,11.45
2018-03-25T09:31:54.426Z,11.67
2018-03-25T09:34:22.203Z,11.79
2018-03-25T09:36:49.926Z,11.62
2018-03-25T09:39:17.706Z,11.53
2018-03-25T09:41:45.446Z,11.38
2018-03-25T09:44:13.206Z,11.22
2018-03-25T09:46:40.923Z,10.80
2018-03-25T09:49:08.710Z,11.04
2018-03-25T09:51:36.420Z,11.10
2018-03-25T09:54:04.250Z,11.02
2018-03-25T09:56:31.967Z,11.27
2018-03-25T09:58:59.713Z,11.60
2018-03-25T10:01:46.065Z,11.63
2018-03-25T10:04:13.822Z,11.28
2018-03-25T10:06:41.591Z,11.54
2018-03-25T10:09:09.406Z,11.51
2018-03-25T10:11:37.152Z,11.66
2018-03-25T10:14:04.991Z,11.94
2018-03-25T10:16:32.699Z,12.13
2018-03-25T10:19:00.580Z,12.22
2018-03-25T10:21:28.492Z,12.35
2018-03-25T10:23:56.634Z,12.58
2018-03-25T10:26:25.313Z,12.39
2018-03-25T10:28:53.128Z,12.41
2018-03-25T10:31:20.813Z,12.64
2018-03-25T10:33:48.594Z,12.95
2018-03-25T10:36:16.327Z,13.26
2018-03-25T10:38:44.081Z,13.55
2018-03-25T10:41:11.825Z,13.76
2018-03-25T10:43:39.539Z,13.23
2018-03-25T10:46:07.606Z,13.16
2018-03-25T10:48:35.365Z,12.85
2018-03-25T10:51:03.102Z,12.98
2018-03-25T10:53:30.938Z,13.12
2018-03-25T10:55:58.729Z,12.82
2018-03-25T10:58:26.475Z,12.82
2018-03-25T11:00:54.330Z,13.12
2018-03-25T11:03:22.054Z,13.33
2018-03-25T11:05:49.893Z,13.11
2018-03-25T11:08:17.633Z,12.66
2018-03-25T11:10:45.452Z,12.46
2018-03-25T11:13:13.151Z,12.43
2018-03-25T11:15:40.895Z,12.35
2018-03-25T11:18:08.618Z,12.32
2018-03-25T11:20:36.540Z,11.98
2018-03-25T11:23:04.538Z,11.92
2018-03-25T11:25:32.355Z,11.82
2018-03-25T11:28:00.096Z,11.45
2018-03-25T11:30:27.973Z,11.46
2018-03-25T11:32:55.798Z,11.78
2018-03-25T11:35:23.562Z,12.05
2018-03-25T11:37:51.294Z,12.49
2018-03-25T11:40:19.070Z,12.73
2018-03-25T11:42:46.761Z,12.89
2018-03-25T11:45:14.539Z,12.16
2018-03-25T11:47:42.223Z,11.94
2018-03-25T11:50:10.015Z,12.15
2018-03-25T11:52:37.749Z,12.28
2018-03-25T11:55:05.536Z,12.38
2018-03-25T11:57:33.257Z,12.58
2018-03-25T12:00:01.027Z,12.81
2018-03-25T12:02:28.765Z,12.92
2018-03-25T12:04:56.534Z,13.14
2018-03-25T12:07:24.373Z,13.23
2018-03-25T12:09:52.214Z,13.46
2018-03-25T12:12:20.005Z,12.75
2018-03-25T12:14:47.879Z,12.82
2018-03-25T12:17:15.583Z,13.18
2018-03-25T12:19:43.350Z,13.12
2018-03-25T12:22:11.113Z,12.93
2018-03-25T12:24:38.854Z,13.08
2018-03-25T12:27:06.575Z,13.60
2018-03-25T12:29:34.323Z,14.34
2018-03-25T12:32:02.032Z,14.29
2018-03-25T12:34:29.747Z,13.92
2018-03-25T12:36:57.554Z,13.05
2018-03-25T12:39:25.242Z,13.30
2018-03-25T12:41:52.970Z,13.21
2018-03-25T12:44:20.717Z,12.97
2018-03-25T12:46:49.202Z,13.38
2018-03-25T12:49:16.946Z,13.88
2018-03-25T12:51:44.690Z,14.29
2018-03-25T12:54:12.428Z,14.73
2018-03-25T12:56:40.194Z,14.57
2018-03-25T12:59:07.930Z,14.66
2018-03-25T13:01:35.746Z,14.49
2018-03-25T13:04:03.491Z,14.36
2018-03-25T13:06:31.255Z,14.67
2018-03-25T13:08:58.974Z,15.05
2018-03-25T13:11:26.738Z,15.06
2018-03-25T13:13:54.471Z,14.75
2018-03-25T13:16:22.197Z,14.48
2018-03-25T13:18:49.922Z,14.22
2018-03-25T13:21:17.738Z,13.74
2018-03-25T13:23:45.454Z,13.70
2018-03-25T13:26:13.223Z,13.81
2018-03-25T13:28:40.944Z,13.54
2018-03-25T13:31:08.746Z,13.44
2018-03-25T13:33:36.475Z,13.27
2018-03-25T13:36:04.252Z,13.49
2018-03-25T13:38:31.963Z,13.69
2018-03-25T13:40:59.703Z,13.73
2018-03-25T13:43:27.415Z,13.61
2018-03-25T13:45:55.150Z,13.52
2018-03-25T13:48:22.907Z,13.57
2018-03-25T13:50:50.727Z,13.61
2018-03-25T13:53:18.463Z,13.41
2018-03-25T13:55:46.220Z,13.52
2018-03-25T13:58:13.974Z,13.47
2018-03-25T14:00:41.721Z,13.49
2018-03-25T14:03:09.446Z,13.54
2018-03-25T14:05:37.206Z,13.62
2018-03-25T14:08:04.943Z,13.72
2018-03-25T14:10:32.819Z,13.83
2018-03-25T14:13:00.586Z,13.90
2018-03-25T14:15:28.411Z,13.75
2018-03-25T14:17:56.142Z,13.83
2018-03-25T14:20:23.906Z,13.86
2018-03-25T14:22:51.671Z,13.91
2018-03-25T14:25:19.396Z,13.69
2018-03-25T14:27:47.139Z,13.71
2018-03-25T14:30:14.865Z,13.71
2018-03-25T14:32:42.654Z,13.71
2018-03-25T14:35:10.408Z,13.61
2018-03-25T14:37:38.194Z,13.47
2018-03-25T14:40:05.951Z,13.38
2018-03-25T14:42:33.716Z,13.28
2018-03-25T14:45:01.462Z,13.12
2018-03-25T14:47:29.316Z,13.02
2018-03-25T14:49:57.071Z,12.96
2018-03-25T14:52:24.815Z,13.01
2018-03-25T14:54:52.534Z,13.05
2018-03-25T14:57:20.291Z,13.06
2018-03-25T14:59:48.031Z,13.11
2018-03-25T15:02:15.803Z,13.11
2018-03-25T15:04:43.550Z,13.14
2018-03-25T15:07:11.275Z,13.11
2018-03-25T15:09:39.010Z,13.13
2018-03-25T15:12:06.761Z,12.98
2018-03-25T15:14:34.470Z,13.02
2018-03-25T15:17:02.243Z,13.05
2018-03-25T15:19:29.967Z,13.11
2018-03-25T15:21:57.770Z,13.14
2018-03-25T15:24:25.538Z,13.20
2018-03-25T15:26:53.311Z,13.25
2018-03-25T15:29:21.034Z,13.22
2018-03-25T15:31:48.809Z,13.22
2018-03-25T15:34:16.510Z,13.20
2018-03-25T15:36:44.258Z,13.17
2018-03-25T15:39:11.979Z,13.18
2018-03-25T15:41:39.760Z,12.95
2018-03-25T15:44:07.495Z,12.63
2018-03-25T15:46:35.246Z,12.34
2018-03-25T15:49:02.981Z,12.44
2018-03-25T15:51:30.742Z,12.39
2018-03-25T15:53:58.461Z,12.38
2018-03-25T15:56:26.251Z,12.27
2018-03-25T15:58:53.997Z,12.00
2018-03-25T16:01:21.730Z,11.85
2018-03-25T16:03:49.520Z,11.97
2018-03-25T16:06:17.264Z,11.98
2018-03-25T16:08:45.022Z,11.90
2018-03-25T16:11:12.755Z,11.84
2018-03-25T16:13:40.492Z,11.74
2018-03-25T16:16:08.177Z,11.71
2018-03-25T16:18:35.939Z,11.54
2018-03-25T16:21:03.703Z,11.49
2018-03-25T16:23:31.495Z,11.52
2018-03-25T16:25:59.215Z,11.40
2018-03-25T16:28:26.971Z,11.29
2018-03-25T16:30:54.703Z,11.24
2018-03-25T16:33:22.458Z,11.18
2018-03-25T16:35:50.170Z,11.12
2018-03-25T16:38:17.930Z,11.02
2018-03-25T16:40:45.655Z,10.83
2018-03-25T16:43:13.403Z,10.85
2018-03-25T16:45:41.126Z,10.83
2018-03-25T16:48:08.910Z,10.76
2018-03-25T16:50:36.629Z,10.67
2018-03-25T16:53:04.425Z,10.58
2018-03-25T16:55:32.122Z,10.67
2018-03-25T16:57:59.894Z,10.54
2018-03-25T17:00:27.629Z,10.58
2018-03-25T17:02:55.413Z,10.62
2018-03-25T17:05:23.124Z,10.46
2018-03-25T17:07:50.894Z,10.43
2018-03-25T17:10:18.634Z,10.41
2018-03-25T17:12:46.397Z,10.44
2018-03-25T17:15:14.183Z,10.33
2018-03-25T17:17:41.929Z,10.37
2018-03-25T17:20:09.664Z,10.34
2018-03-25T17:22:37.435Z,10.22
2018-03-25T17:25:05.214Z,10.26
2018-03-25T17:27:33.027Z,10.22
2018-03-25T17:30:00.811Z,10.19
2018-03-25T17:32:28.663Z,10.17
2018-03-25T17:34:56.473Z,10.17
2018-03-25T17:37:24.323Z,10.15
2018-03-25T17:39:52.143Z,10.15
2018-03-25T17:42:20.026Z,10.13
2018-03-25T17:44:47.824Z,10.08
2018-03-25T17:47:15.543Z,10.03
2018-03-25T17:49:43.316Z,9.99
2018-03-25T17:52:11.004Z,9.98
2018-03-25T17:54:38.755Z,9.94
2018-03-25T17:57:06.506Z,9.90
2018-03-25T17:59:34.294Z,9.86
2018-03-25T18:02:02.011Z,9.83
2018-03-25T18:04:29.767Z,9.79
2018-03-25T18:06:57.459Z,9.71
2018-03-25T18:09:25.202Z,9.65
2018-03-25T18:11:52.909Z,9.60
2018-03-25T18:14:20.672Z,9.59
2018-03-25T18:16:48.394Z,9.56
2018-03-25T18:19:16.154Z,9.45
2018-03-25T18:21:43.901Z,9.39
2018-03-25T18:24:11.662Z,9.38
2018-03-25T18:26:39.375Z,9.43
2018-03-25T18:29:07.095Z,9.46
2018-03-25T18:31:34.799Z,9.46
2018-03-25T18:34:02.530Z,9.46
2018-03-25T18:36:30.225Z,9.42
2018-03-25T18:38:57.979Z,9.31
2018-03-25T18:41:25.699Z,9.27
2018-03-25T18:43:53.461Z,9.27
2018-03-25T18:46:21.202Z,9.30
2018-03-25T18:48:48.934Z,9.35
2018-03-25T18:51:16.656Z,9.37
2018-03-25T18:53:44.413Z,9.35
2018-03-25T18:56:12.143Z,9.32
2018-03-25T18:58:39.895Z,9.25
2018-03-25T19:01:07.600Z,9.20
2018-03-25T19:03:35.443Z,9.14
2018-03-25T19:06:03.147Z,9.10
2018-03-25T19:08:30.983Z,9.10
2018-03-25T19:10:58.622Z,9.10
2018-03-25T19:13:26.346Z,9.10
2018-03-25T19:15:54.087Z,9.11
2018-03-25T19:18:21.939Z,9.04
2018-03-25T19:20:49.719Z,8.98
2018-03-25T19:23:17.436Z,9.05
2018-03-25T19:25:45.202Z,9.04
2018-03-25T19:28:12.916Z,8.93
2018-03-25T19:30:40.705Z,8.83
2018-03-25T19:33:08.446Z,8.75
2018-03-25T19:35:36.187Z,8.63
2018-03-25T19:38:03.922Z,8.54
2018-03-25T19:40:31.724Z,8.59
2018-03-25T19:42:59.464Z,8.51
2018-03-25T19:45:27.235Z,8.48
2018-03-25T19:47:54.983Z,8.47
2018-03-25T19:50:22.762Z,8.42
2018-03-25T19:52:50.501Z,8.34
2018-03-25T19:55:18.233Z,8.33
2018-03-25T19:57:45.998Z,8.36
2018-03-25T20:00:13.823Z,8.37
2018-03-25T20:02:41.586Z,8.35
2018-03-25T20:05:09.406Z,8.32
2018-03-25T20:07:37.132Z,8.30
2018-03-25T20:10:04.947Z,8.24
2018-03-25T20:12:32.690Z,8.20
2018-03-25T20:15:00.467Z,8.18
2018-03-25T20:17:28.187Z,8.15
2018-03-25T20:19:55.941Z,8.11
2018-03-25T20:22:23.710Z,8.10
2018-03-25T20:24:51.451Z,8.09
2018-03-25T20:27:19.166Z,8.09
2018-03-25T20:29:46.942Z,8.11
2018-03-25T20:32:14.644Z,8.11
2018-03-25T20:34:42.443Z,8.11
2018-03-25T20:37:10.133Z,8.10
2018-03-25T20:39:37.853Z,7.99
2018-03-25T20:42:05.558Z,7.85
2018-03-25T20:44:33.273Z,7.75
2018-03-25T20:47:00.998Z,7.74
2018-03-25T20:49:28.780Z,7.73
2018-03-25T20:51:56.503Z,7.79
2018-03-25T20:54:24.322Z,7.84
2018-03-25T20:56:52.042Z,7.86
2018-03-25T20:59:19.818Z,7.79
2018-03-25T21:01:47.551Z,7.84
2018-03-25T21:04:15.250Z,7.86
2018-03-25T21:06:43.027Z,7.88
2018-03-25T21:09:10.740Z,7.80
2018-03-25T21:11:38.480Z,7.78
2018-03-25T21:14:06.203Z,7.76
2018-03-25T21:16:33.959Z,7.75
2018-03-25T21:19:01.710Z,7.72
2018-03-25T21:21:29.550Z,7.70
2018-03-25T21:23:57.295Z,7.64
2018-03-25T21:26:25.432Z,7.65
2018-03-25T21:28:53.265Z,7.58
2018-03-25T21:31:21.114Z,7.59
2018-03-25T21:33:48.817Z,7.65
2018-03-25T21:36:16.669Z,7.65
2018-03-25T21:38:44.515Z,7.64
2018-03-25T21:41:12.362Z,7.64
2018-03-25T21:43:40.179Z,7.67
2018-03-25T21:46:08.014Z,7.67
2018-03-25T21:48:35.806Z,7.60
2018-03-25T21:51:03.698Z,7.60
2018-03-25T21:53:31.498Z,7.59
2018-03-25T21:55:59.347Z,7.57
2018-03-25T21:58:27.106Z,7.54
2018-03-25T22:00:54.931Z,7.53
2018-03-25T22:03:22.670Z,7.51
2018-03-25T22:05:50.508Z,7.49
2018-03-25T22:08:18.212Z,7.49
2018-03-25T22:10:46.083Z,7.47
2018-03-25T22:13:13.873Z,7.48
2018-03-25T22:15:41.709Z,7.52
2018-03-25T22:18:09.452Z,7.54
2018-03-25T22:20:37.350Z,7.54
2018-03-25T22:23:05.130Z,7.56
2018-03-25T22:25:32.944Z,7.54
2018-03-25T22:28:00.697Z,7.54
2018-03-25T22:30:28.526Z,7.54
2018-03-25T22:32:56.276Z,7.52
2018-03-25T22:35:24.113Z,7.49
2018-03-25T22:37:51.935Z,7.47
2018-03-25T22:40:19.774Z,7.47
2018-03-25T22:42:47.640Z,7.46
2018-03-25T22:45:15.427Z,7.45
2018-03-25T22:47:43.216Z,7.45
2018-03-25T22:50:10.994Z,7.46
2018-03-25T22:52:38.794Z,7.45
2018-03-25T22:55:06.529Z,7.45
2018-03-25T22:57:34.346Z,7.33
2018-03-25T23:00:02.109Z,7.38
2018-03-25T23:02:29.918Z,7.43
2018-03-25T23:04:57.677Z,7.48
2018-03-25T23:07:25.709Z,7.60
2018-03-25T23:09:53.458Z,7.59
2018-03-25T23:12:21.307Z,7.60
2018-03-25T23:14:49.121Z,7.67
2018-03-25T23:17:16.930Z,7.74
2018-03-25T23:19:44.676Z,7.80
2018-03-25T23:22:14.481Z,7.78
2018-03-25T23:24:42.184Z,7.81
2018-03-25T23:27:10.009Z,7.91
2018-03-25T23:29:37.791Z,7.90
2018-03-25T23:32:05.609Z,7.93
2018-03-25T23:34:33.342Z,7.94
2018-03-25T23:37:01.178Z,7.94
2018-03-25T23:39:28.892Z,7.89
2018-03-25T23:41:57.022Z,7.84
2018-03-25T23:44:24.783Z,7.84
2018-03-25T23:46:52.588Z,7.84
2018-03-25T23:49:20.345Z,7.80
2018-03-25T23:51:48.180Z,7.73
2018-03-25T23:54:15.912Z,7.73
2018-03-25T23:56:43.736Z,7.74
2018-03-25T23:59:11.485Z,7.73
